Time;durP1;ratioP1;P1;durP2;ratioP2;P2;SDS_P1;SDS_P2;PMS_P1;PMS_P2;Temp;Humidity;BMP_temperature;BMP_pressure;BME280_temperature;BME280_humidity;BME280_pressure;Samples;Min_cycle;Max_cycle;Signal;HPM_P1;HPM_P2
2023/10/18 00:02:41;;;;;;;16.70;2.47;;;;;;;;;;6059088;23;20025;-60
2023/10/18 00:05:29;;;;;;;15.75;2.30;;;;;;;;;;6057691;23;20609;-60
2023/10/18 00:08:24;;;;;;;14.20;2.45;;;;;;;;;;6059199;23;20031;-59
2023/10/18 00:11:12;;;;;;;8.32;2.35;;;;;;;;;;6058711;23;20027;-62
2023/10/18 00:14:05;;;;;;;10.27;2.38;;;;;;;;;;6057301;23;20094;-60
2023/10/18 00:16:33;;;;;;;;;;;;;;;;;;6058860;23;20098;-60
2023/10/18 00:19:26;;;;;;;21.45;2.10;;;;;;;;;;6057430;23;20383;-59
2023/10/18 00:22:20;;;;;;;12.98;2.13;;;;;;;;;;6059294;23;20079;-60
2023/10/18 00:25:16;;;;;;;16.45;2.47;;;;;;;;;;6056738;23;20028;-62
2023/10/18 00:28:03;;;;;;;11.88;2.38;;;;;;;;;;6058991;23;20026;-52
2023/10/18 00:30:55;;;;;;;17.50;2.88;;;;;;;;;;6057224;23;20027;-53
2023/10/18 00:33:43;;;;;;;15.48;2.35;;;;;;;;;;6057872;23;20023;-55
2023/10/18 00:36:37;;;;;;;17.08;2.25;;;;;;;;;;6057425;23;20023;-53
2023/10/18 00:39:27;;;;;;;10.25;2.42;;;;;;;;;;6057299;23;20122;-53
2023/10/18 00:42:25;;;;;;;6.07;2.05;;;;;;;;;;6056901;23;20022;-55
2023/10/18 00:45:19;;;;;;;24.85;2.72;;;;;;;;;;6058150;23;20102;-59
2023/10/18 00:48:12;;;;;;;7.82;1.88;;;;;;;;;;6057093;23;20764;-51
2023/10/18 00:50:59;;;;;;;8.70;1.95;;;;;;;;;;6057377;23;20524;-50
2023/10/18 00:53:53;;;;;;;12.73;2.08;;;;;;;;;;6055656;23;20441;-54
2023/10/18 00:56:41;;;;;;;9.48;1.85;;;;;;;;;;6055389;23;20034;-64
2023/10/18 00:59:38;;;;;;;9.57;2.63;;;;;;;;;;6056222;23;20034;-62
2023/10/18 01:02:28;;;;;;;9.80;2.40;;;;;;;;;;6057428;23;20026;-62
2023/10/18 01:05:16;;;;;;;12.32;2.17;;;;;;;;;;6058335;23;20130;-63
2023/10/18 01:08:10;;;;;;;14.30;2.65;;;;;;;;;;6056334;23;20051;-63
2023/10/18 01:11:06;;;;;;;52.88;3.45;;;;;;;;;;6057228;23;20481;-63
2023/10/18 01:13:55;;;;;;;4.65;1.30;;;;;;;;;;6056914;23;20035;-63
2023/10/18 01:16:46;;;;;;;15.68;1.90;;;;;;;;;;6057694;23;20473;-65
2023/10/18 01:19:43;;;;;;;8.15;1.98;;;;;;;;;;6056113;23;20342;-64
2023/10/18 01:22:37;;;;;;;11.52;2.00;;;;;;;;;;6056744;23;20023;-64
2023/10/18 01:25:25;;;;;;;8.88;2.38;;;;;;;;;;6057227;23;20075;-65
2023/10/18 01:28:19;;;;;;;8.20;1.80;;;;;;;;;;6055072;23;20087;-65
2023/10/18 01:31:06;;;;;;;7.32;1.50;;;;;;;;;;6057388;23;20027;-65
2023/10/18 01:34:03;;;;;;;7.97;2.05;;;;;;;;;;6055640;23;20061;-50
2023/10/18 01:36:57;;;;;;;11.32;2.30;;;;;;;;;;6057783;23;20030;-49
2023/10/18 01:39:41;;;;;;;10.30;2.35;;;;;;;;;;6054302;23;20027;-52
2023/10/18 01:42:37;;;;;;;10.45;2.50;;;;;;;;;;6058256;23;20053;-49
2023/10/18 01:45:23;;;;;;;23.98;3.20;;;;;;;;;;6054808;23;20120;-51
2023/10/18 01:48:20;;;;;;;12.52;2.60;;;;;;;;;;6057630;23;20027;-56
2023/10/18 01:51:10;;;;;;;9.10;2.10;;;;;;;;;;6056877;23;20023;-60
2023/10/18 01:54:12;;;;;;;10.88;2.40;;;;;;;;;;6056327;23;20026;-58
2023/10/18 01:56:57;;;;;;;9.10;2.35;;;;;;;;;;6058014;23;20027;-57
2023/10/18 01:59:52;;;;;;;4.97;1.80;;;;;;;;;;6057007;23;20042;-57
2023/10/18 02:02:39;;;;;;;6.25;2.13;;;;;;;;;;6055887;23;20033;-63
2023/10/18 02:05:37;;;;;;;12.40;2.30;;;;;;;;;;6056771;23;20030;-56
2023/10/18 02:08:25;;;;;;;9.18;2.03;;;;;;;;;;6056914;23;20037;-59
2023/10/18 02:11:19;;;;;;;9.55;2.22;;;;;;;;;;6056832;23;20528;-57
2023/10/18 02:14:08;;;;;;;18.88;2.70;;;;;;;;;;6057331;23;20781;-58
2023/10/18 02:17:00;;;;;;;10.40;2.15;;;;;;;;;;6056396;23;20330;-57
2023/10/18 02:19:58;;;;;;;8.90;1.90;;;;;;;;;;6056372;23;20062;-65
2023/10/18 02:22:48;;;;;;;5.28;2.38;;;;;;;;;;6056835;23;20035;-64
2023/10/18 02:25:46;;;;;;;5.30;2.13;;;;;;;;;;6056297;23;20033;-64
2023/10/18 02:28:50;;;;;;;3.95;2.08;;;;;;;;;;6054982;23;20023;-65
2023/10/18 02:31:47;;;;;;;7.40;1.67;;;;;;;;;;6055823;23;20031;-65
2023/10/18 02:34:34;;;;;;;8.30;2.20;;;;;;;;;;6057509;23;20363;-66
2023/10/18 02:37:28;;;;;;;7.13;2.08;;;;;;;;;;6054818;23;20387;-65
2023/10/18 02:40:29;;;;;;;5.72;2.00;;;;;;;;;;6056943;23;20453;-63
2023/10/18 02:43:14;;;;;;;3.42;1.42;;;;;;;;;;6056244;23;20030;-52
2023/10/18 02:45:59;;;;;;;5.93;1.92;;;;;;;;;;6054700;23;20202;-51
2023/10/18 02:48:54;;;;;;;3.60;1.67;;;;;;;;;;6057865;23;20135;-52
2023/10/18 02:51:43;;;;;;;6.25;1.80;;;;;;;;;;6055087;23;20023;-53
2023/10/18 02:54:35;;;;;;;6.13;2.00;;;;;;;;;;6057580;23;20051;-49
2023/10/18 02:57:24;;;;;;;8.68;2.45;;;;;;;;;;6056364;23;20019;-65
2023/10/18 03:00:17;;;;;;;7.32;2.00;;;;;;;;;;6056691;23;20087;-52
2023/10/18 03:03:04;;;;;;;5.80;1.70;;;;;;;;;;6054542;23;20035;-52
2023/10/18 03:06:06;;;;;;;5.50;1.50;;;;;;;;;;6058703;23;20035;-52
2023/10/18 03:08:49;;;;;;;5.50;1.80;;;;;;;;;;6057685;23;20492;-48
2023/10/18 03:11:44;;;;;;;6.47;1.50;;;;;;;;;;6060240;23;20023;-51
2023/10/18 03:14:41;;;;;;;4.97;1.58;;;;;;;;;;6055725;23;20023;-54
2023/10/18 03:17:35;;;;;;;6.43;1.88;;;;;;;;;;6060021;23;20069;-61
2023/10/18 03:20:28;;;;;;;3.00;1.75;;;;;;;;;;6058139;23;20050;-61
2023/10/18 03:23:31;;;;;;;2.67;1.55;;;;;;;;;;6058611;23;20078;-61
2023/10/18 03:26:21;;;;;;;11.65;2.10;;;;;;;;;;6058640;23;20786;-61
2023/10/18 03:29:11;;;;;;;5.60;1.67;;;;;;;;;;6058202;23;20039;-61
2023/10/18 03:31:57;;;;;;;4.80;1.80;;;;;;;;;;6059497;23;20023;-64
2023/10/18 03:34:53;;;;;;;5.97;1.70;;;;;;;;;;6056981;23;20060;-52
2023/10/18 03:37:48;;;;;;;3.50;1.88;;;;;;;;;;6057819;23;20023;-54
2023/10/18 03:40:46;;;;;;;13.32;2.00;;;;;;;;;;6057154;23;20461;-57
2023/10/18 03:43:32;;;;;;;5.95;1.65;;;;;;;;;;6059532;23;20066;-55
2023/10/18 03:49:33;;;;;;;6.15;1.63;;;;;;;;;;5969505;24;20036;-65
2023/10/18 03:52:26;;;;;;;4.80;1.60;;;;;;;;;;6060086;23;20055;-63
2023/10/18 03:55:36;;;;;;;7.82;2.00;;;;;;;;;;6058136;23;20023;-63
2023/10/18 03:58:17;;;;;;;3.15;1.42;;;;;;;;;;6056273;23;20026;-62
2023/10/18 04:01:05;;;;;;;3.05;1.80;;;;;;;;;;6058356;23;20026;-63
2023/10/18 04:03:52;;;;;;;6.75;1.95;;;;;;;;;;6055306;23;20085;-53
2023/10/18 04:06:49;;;;;;;6.82;1.92;;;;;;;;;;6053256;23;20178;-63
2023/10/18 04:09:46;;;;;;;5.45;1.88;;;;;;;;;;6055426;23;20030;-62
2023/10/18 04:12:28;;;;;;;7.45;2.20;;;;;;;;;;6055544;23;20062;-63
2023/10/18 04:15:22;;;;;;;6.93;2.50;;;;;;;;;;6056143;23;20022;-63
2023/10/18 04:20:59;;;;;;;3.85;2.10;;;;;;;;;;6056082;23;20082;-54
2023/10/18 04:23:56;;;;;;;8.85;2.20;;;;;;;;;;6059872;23;20031;-65
2023/10/18 04:26:52;;;;;;;9.55;2.20;;;;;;;;;;6055326;23;20023;-64
2023/10/18 04:29:39;;;;;;;8.48;2.33;;;;;;;;;;6058549;23;20122;-64
2023/10/18 04:32:31;;;;;;;7.45;2.00;;;;;;;;;;6058804;23;20477;-64
2023/10/18 04:35:25;;;;;;;3.15;1.70;;;;;;;;;;6058460;23;20027;-65
2023/10/18 04:38:23;;;;;;;7.13;1.60;;;;;;;;;;6058043;23;20342;-65
2023/10/18 04:44:20;;;;;;;10.82;1.98;;;;;;;;;;5969843;24;20625;-57
2023/10/18 04:47:14;;;;;;;6.85;1.90;;;;;;;;;;6055135;23;20027;-56
2023/10/18 04:50:04;;;;;;;4.75;1.90;;;;;;;;;;6057638;23;20030;-54
2023/10/18 04:52:50;;;;;;;3.88;2.13;;;;;;;;;;6057391;23;20086;-56
2023/10/18 04:55:50;;;;;;;4.88;1.92;;;;;;;;;;6055869;23;20409;-59
2023/10/18 04:58:31;;;;;;;11.52;2.20;;;;;;;;;;6049641;23;20030;-57
2023/10/18 05:01:32;;;;;;;12.60;2.03;;;;;;;;;;6055309;23;20082;-65
2023/10/18 05:04:24;;;;;;;6.07;1.85;;;;;;;;;;6055307;23;20508;-64
2023/10/18 05:07:17;;;;;;;7.78;1.88;;;;;;;;;;6056931;23;20398;-65
2023/10/18 05:10:05;;;;;;;5.80;2.05;;;;;;;;;;6057688;23;20098;-66
2023/10/18 05:15:29;;;;;;;3.10;1.83;;;;;;;;;;6060151;23;20334;-58
2023/10/18 05:18:23;;;;;;;6.65;2.05;;;;;;;;;;6057961;23;20027;-58
2023/10/18 05:21:20;;;;;;;4.00;1.67;;;;;;;;;;6058332;23;20042;-58
2023/10/18 05:24:18;;;;;;;6.05;1.80;;;;;;;;;;6058597;23;20034;-55
2023/10/18 05:26:57;;;;;;;4.60;1.73;;;;;;;;;;6059232;23;20169;-57
2023/10/18 05:29:59;;;;;;;4.15;1.55;;;;;;;;;;6058090;23;20082;-58
2023/10/18 05:33:02;;;;;;;5.18;2.00;;;;;;;;;;6059965;23;20405;-58
2023/10/18 05:35:45;;;;;;;7.80;1.90;;;;;;;;;;6056112;23;20409;-55
2023/10/18 05:43:58;;;;;;;3.78;1.80;;;;;;;;;;6058602;23;20030;-58
2023/10/18 05:46:50;;;;;;;6.80;1.98;;;;;;;;;;6058276;23;20022;-58
2023/10/18 05:49:41;;;;;;;4.57;1.80;;;;;;;;;;6057634;23;20051;-58
2023/10/18 05:52:38;;;;;;;6.53;2.22;;;;;;;;;;6058695;23;20728;-51
2023/10/18 05:55:30;;;;;;;2.97;1.95;;;;;;;;;;6057803;23;20556;-52
2023/10/18 05:58:28;;;;;;;5.93;1.90;;;;;;;;;;6058893;23;20477;-55
2023/10/18 06:01:13;;;;;;;2.23;1.40;;;;;;;;;;6057411;23;20503;-51
2023/10/18 06:04:07;;;;;;;9.15;1.95;;;;;;;;;;6058684;23;20094;-52
2023/10/18 06:07:10;;;;;;;3.20;1.73;;;;;;;;;;6058012;23;20026;-48
2023/10/18 06:10:38;;;;;;;7.65;2.17;;;;;;;;;;6058702;23;20027;-49
2023/10/18 06:13:05;;;;;;;5.68;2.10;;;;;;;;;;6053549;23;20086;-56
2023/10/18 06:15:52;;;;;;;4.38;2.15;;;;;;;;;;6058356;23;20034;-63
2023/10/18 06:18:39;;;;;;;4.07;2.20;;;;;;;;;;6057951;23;20019;-63
2023/10/18 06:21:57;;;;;;;5.68;2.15;;;;;;;;;;6056610;23;20094;-63
2023/10/18 06:24:27;;;;;;;3.75;2.00;;;;;;;;;;6056208;23;20029;-63
2023/10/18 06:27:21;;;;;;;11.13;2.70;;;;;;;;;;6057967;23;20609;-64
2023/10/18 06:30:14;;;;;;;6.93;2.20;;;;;;;;;;6058932;23;20086;-61
2023/10/18 06:33:07;;;;;;;3.92;1.90;;;;;;;;;;6058433;23;20532;-61
2023/10/18 06:36:11;;;;;;;5.57;2.25;;;;;;;;;;6059174;23;20591;-62
2023/10/18 06:38:50;;;;;;;7.28;2.00;;;;;;;;;;6057528;23;20090;-61
2023/10/18 06:41:45;;;;;;;5.18;2.40;;;;;;;;;;6059245;23;20030;-61
2023/10/18 06:44:33;;;;;;;4.25;2.30;;;;;;;;;;6059822;23;20034;-61
2023/10/18 06:47:43;;;;;;;6.78;2.40;;;;;;;;;;6059954;23;20090;-52
2023/10/18 06:50:26;;;;;;;5.20;2.58;;;;;;;;;;6059076;23;20086;-61
2023/10/18 06:53:15;;;;;;;3.95;2.25;;;;;;;;;;6059522;23;20030;-60
2023/10/18 06:56:19;;;;;;;6.00;2.58;;;;;;;;;;6060338;23;20034;-60
2023/10/18 06:59:07;;;;;;;6.28;2.25;;;;;;;;;;6059698;23;20027;-60
2023/10/18 07:02:03;;;;;;;8.93;2.42;;;;;;;;;;6061118;23;20338;-60
2023/10/18 07:04:56;;;;;;;6.97;2.20;;;;;;;;;;6057995;23;20030;-60
2023/10/18 07:07:42;;;;;;;7.20;2.28;;;;;;;;;;6061005;23;20394;-64
2023/10/18 07:13:38;;;;;;;5.68;2.50;;;;;;;;;;6060331;23;20031;-55
2023/10/18 07:16:33;;;;;;;3.55;1.95;;;;;;;;;;6059821;23;20373;-53
2023/10/18 07:19:26;;;;;;;3.08;2.05;;;;;;;;;;6058776;23;20097;-52
2023/10/18 07:22:21;;;;;;;3.97;2.10;;;;;;;;;;6060915;23;20022;-52
2023/10/18 07:25:20;;;;;;;5.47;2.85;;;;;;;;;;6057512;23;20037;-49
2023/10/18 07:28:09;;;;;;;3.30;2.22;;;;;;;;;;6061064;23;20033;-61
2023/10/18 07:31:08;;;;;;;6.70;2.90;;;;;;;;;;6057935;23;20030;-61
2023/10/18 07:34:02;;;;;;;5.45;2.55;;;;;;;;;;6059892;23;20046;-60
2023/10/18 07:36:45;;;;;;;5.20;2.13;;;;;;;;;;6060037;23;20027;-60
2023/10/18 07:39:41;;;;;;;7.78;1.95;;;;;;;;;;6059853;23;20133;-60
2023/10/18 07:42:26;;;;;;;5.57;2.35;;;;;;;;;;6060054;23;20033;-63
2023/10/18 07:45:21;;;;;;;4.00;1.95;;;;;;;;;;6059661;23;20112;-63
2023/10/18 07:48:11;;;;;;;4.50;2.20;;;;;;;;;;6060303;23;20030;-61
2023/10/18 07:51:03;;;;;;;2.90;1.85;;;;;;;;;;6057774;23;20461;-61
2023/10/18 07:53:54;;;;;;;3.90;2.05;;;;;;;;;;6060875;23;20106;-61
2023/10/18 07:56:53;;;;;;;6.78;1.80;;;;;;;;;;6058919;23;20070;-61
2023/10/18 07:59:45;;;;;;;3.50;2.22;;;;;;;;;;6059321;23;20031;-61
2023/10/18 08:02:32;;;;;;;3.17;1.98;;;;;;;;;;6059013;23;20078;-66
2023/10/18 08:05:30;;;;;;;1.98;1.58;;;;;;;;;;6059385;23;20441;-53
2023/10/18 08:08:17;;;;;;;4.57;1.90;;;;;;;;;;6060206;23;20023;-52
2023/10/18 08:11:06;;;;;;;3.75;1.95;;;;;;;;;;6058888;23;20034;-53
2023/10/18 08:13:57;;;;;;;3.53;1.90;;;;;;;;;;6059949;23;20528;-50
2023/10/18 08:16:51;;;;;;;4.55;2.50;;;;;;;;;;6058095;23;20031;-55
2023/10/18 08:19:45;;;;;;;5.40;2.20;;;;;;;;;;6058899;23;20109;-61
2023/10/18 08:22:39;;;;;;;3.58;1.90;;;;;;;;;;6059266;23;20030;-65
2023/10/18 08:25:34;;;;;;;6.18;2.30;;;;;;;;;;6057316;23;20026;-64
2023/10/18 08:28:20;;;;;;;8.25;2.92;;;;;;;;;;6058717;23;20027;-64
2023/10/18 08:31:15;;;;;;;3.95;2.17;;;;;;;;;;6058557;23;20448;-64
2023/10/18 08:34:05;;;;;;;;;;;;;;;;;;6059304;23;20023;-63
2023/10/18 08:37:03;;;;;;;3.78;1.80;;;;;;;;;;6059277;23;19921;-64
2023/10/18 08:39:55;;;;;;;3.00;1.60;;;;;;;;;;6059618;23;20078;-64
2023/10/18 08:42:50;;;;;;;2.65;1.35;;;;;;;;;;6059675;23;20030;-51
2023/10/18 08:45:49;;;;;;;3.63;1.73;;;;;;;;;;6059689;23;20034;-54
2023/10/18 08:48:28;;;;;;;7.18;1.40;;;;;;;;;;6057942;23;20019;-50
2023/10/18 08:51:26;;;;;;;4.05;1.40;;;;;;;;;;6060007;23;20038;-51
2023/10/18 08:54:22;;;;;;;2.15;1.02;;;;;;;;;;6058781;23;20030;-52
2023/10/18 08:57:15;;;;;;;3.15;1.52;;;;;;;;;;6060025;23;20027;-64
2023/10/18 09:01:02;;;;;;;1.88;1.13;;;;;;;;;;6058245;23;20030;-64
2023/10/18 09:03:13;;;;;;;1.95;1.33;;;;;;;;;;6058656;23;20023;-64
2023/10/18 09:06:05;;;;;;;1.27;1.15;;;;;;;;;;6058425;23;20058;-64
2023/10/18 09:09:07;;;;;;;2.50;0.90;;;;;;;;;;6058308;23;20082;-64
2023/10/18 09:11:52;;;;;;;4.80;1.17;;;;;;;;;;6060466;23;20346;-64
2023/10/18 09:14:50;;;;;;;3.97;1.00;;;;;;;;;;6058809;23;20083;-65
2023/10/18 09:17:33;;;;;;;1.88;1.00;;;;;;;;;;6057661;23;20469;-57
2023/10/18 09:20:37;;;;;;;1.85;0.90;;;;;;;;;;6057403;23;20027;-57
2023/10/18 09:23:21;;;;;;;1.60;0.90;;;;;;;;;;6059606;23;20029;-58
2023/10/18 09:26:26;;;;;;;3.60;1.00;;;;;;;;;;6056333;23;20616;-58
2023/10/18 09:29:08;;;;;;;2.72;0.70;;;;;;;;;;6057795;23;20090;-59
2023/10/18 09:32:04;;;;;;;1.23;0.68;;;;;;;;;;6056953;23;20027;-56
2023/10/18 09:34:51;;;;;;;2.92;0.88;;;;;;;;;;6058934;23;20027;-65
2023/10/18 09:37:45;;;;;;;1.88;0.60;;;;;;;;;;6059588;23;20158;-58
2023/10/18 09:40:32;;;;;;;0.68;0.45;;;;;;;;;;6057800;23;20026;-58
2023/10/18 09:43:27;;;;;;;1.52;0.73;;;;;;;;;;6059130;23;20507;-58
2023/10/18 09:46:13;;;;;;;0.70;0.38;;;;;;;;;;6057322;23;20026;-58
2023/10/18 09:49:09;;;;;;;1.02;0.50;;;;;;;;;;6059371;23;20079;-58
2023/10/18 09:51:55;;;;;;;2.33;0.70;;;;;;;;;;6059119;23;20029;-62
2023/10/18 09:54:50;;;;;;;1.15;0.55;;;;;;;;;;6059431;23;20019;-57
2023/10/18 09:57:40;;;;;;;0.65;0.50;;;;;;;;;;6059282;23;20027;-59
2023/10/18 10:00:44;;;;;;;2.05;0.47;;;;;;;;;;6059100;23;20022;-58
2023/10/18 10:03:27;;;;;;;0.35;0.30;;;;;;;;;;6057065;23;20031;-58
2023/10/18 10:06:21;;;;;;;1.10;0.50;;;;;;;;;;6058980;23;20023;-59
2023/10/18 10:09:17;;;;;;;0.82;0.40;;;;;;;;;;6058091;23;20402;-49
2023/10/18 10:12:11;;;;;;;0.82;0.50;;;;;;;;;;6058743;23;20398;-59
2023/10/18 10:15:13;;;;;;;2.38;0.40;;;;;;;;;;6059645;23;20026;-61
2023/10/18 10:18:00;;;;;;;0.20;0.20;;;;;;;;;;6059030;23;20026;-61
2023/10/18 10:20:46;;;;;;;1.80;0.70;;;;;;;;;;6061827;23;20027;-61
2023/10/18 10:23:46;;;;;;;0.90;0.60;;;;;;;;;;6060826;23;20034;-61
2023/10/18 10:26:36;;;;;;;0.63;0.50;;;;;;;;;;6061344;23;20034;-60
2023/10/18 10:31:56;;;;;;;;;;;;;;;;;;6062865;23;20121;-58
2023/10/18 10:34:52;;;;;;;2.17;0.35;;;;;;;;;;6061618;23;20017;-58
2023/10/18 10:38:01;;;;;;;1.50;0.60;;;;;;;;;;6061906;23;20027;-59
2023/10/18 10:44:07;;;;;;;0.93;0.55;;;;;;;;;;6060226;23;20093;-57
2023/10/18 10:47:29;;;;;;;0.75;0.50;;;;;;;;;;6060792;23;20026;-52
2023/10/18 10:50:30;;;;;;;3.25;0.57;;;;;;;;;;6060500;23;20026;-49
2023/10/18 10:53:32;;;;;;;0.43;0.40;;;;;;;;;;6061624;23;20493;-46
2023/10/18 10:56:33;;;;;;;0.95;0.60;;;;;;;;;;6061084;23;20073;-49
2023/10/18 10:59:27;;;;;;;1.65;0.25;;;;;;;;;;6059652;23;20747;-49
2023/10/18 11:02:24;;;;;;;0.32;0.30;;;;;;;;;;6061730;23;20087;-50
2023/10/18 11:05:16;;;;;;;;;;;;;;;;;;6060643;23;20488;-58
2023/10/18 11:08:12;;;;;;;0.53;0.30;;;;;;;;;;6061354;23;19992;-49
2023/10/18 11:10:57;;;;;;;1.50;0.50;;;;;;;;;;6059355;23;20542;-51
2023/10/18 11:13:51;;;;;;;0.77;0.22;;;;;;;;;;6062590;23;20026;-48
2023/10/18 11:16:38;;;;;;;2.60;0.40;;;;;;;;;;6058786;23;20023;-49
2023/10/18 11:19:32;;;;;;;0.55;0.40;;;;;;;;;;6060868;23;20026;-49
2023/10/18 11:22:29;;;;;;;2.55;0.40;;;;;;;;;;6061703;23;20106;-49
2023/10/18 11:25:20;;;;;;;0.50;0.35;;;;;;;;;;6061006;23;20078;-59
2023/10/18 11:28:28;;;;;;;0.68;0.47;;;;;;;;;;6063135;23;20453;-48
2023/10/18 11:31:16;;;;;;;0.52;0.47;;;;;;;;;;6058813;23;20027;-48
2023/10/18 11:34:06;;;;;;;0.28;0.25;;;;;;;;;;6061327;23;20034;-49
2023/10/18 11:37:08;;;;;;;1.15;0.40;;;;;;;;;;6059899;23;20058;-51
2023/10/18 11:39:55;;;;;;;1.67;1.20;;;;;;;;;;6060782;23;20095;-50
2023/10/18 11:43:11;;;;;;;2.75;0.70;;;;;;;;;;6060054;23;20030;-47
2023/10/18 11:46:05;;;;;;;1.58;0.70;;;;;;;;;;6059856;23;20031;-62
2023/10/18 11:48:55;;;;;;;0.80;0.50;;;;;;;;;;6060766;23;20062;-62
2023/10/18 11:51:49;;;;;;;1.67;0.60;;;;;;;;;;6058835;23;20062;-62
2023/10/18 11:54:38;;;;;;;1.38;0.63;;;;;;;;;;6059921;23;20247;-62
2023/10/18 11:57:39;;;;;;;0.93;0.50;;;;;;;;;;6057962;23;20094;-61
2023/10/18 12:00:35;;;;;;;1.15;0.35;;;;;;;;;;6059389;23;20038;-51
2023/10/18 12:03:27;;;;;;;0.85;0.43;;;;;;;;;;6059352;23;20054;-64
2023/10/18 12:06:12;;;;;;;0.30;0.30;;;;;;;;;;6059021;23;20306;-64
2023/10/18 12:11:39;;;;;;;0.63;0.30;;;;;;;;;;6060311;23;20027;-64
2023/10/18 12:14:36;;;;;;;0.55;0.40;;;;;;;;;;6059355;23;20627;-64
2023/10/18 12:17:21;;;;;;;0.52;0.47;;;;;;;;;;6059112;23;20369;-64
2023/10/18 12:20:14;;;;;;;0.55;0.20;;;;;;;;;;6059295;23;20019;-58
2023/10/18 12:23:12;;;;;;;2.65;0.63;;;;;;;;;;6059366;23;20057;-59
2023/10/18 12:26:08;;;;;;;1.38;0.40;;;;;;;;;;6058784;23;20235;-58
2023/10/18 12:28:55;;;;;;;1.20;0.40;;;;;;;;;;6059108;23;20365;-59
2023/10/18 12:31:55;;;;;;;1.15;0.50;;;;;;;;;;6060048;23;20030;-58
2023/10/18 12:34:44;;;;;;;0.35;0.20;;;;;;;;;;6058441;23;20401;-58
2023/10/18 12:37:40;;;;;;;0.60;0.40;;;;;;;;;;6058522;23;20409;-62
2023/10/18 12:40:41;;;;;;;0.65;0.40;;;;;;;;;;6058710;23;20022;-62
2023/10/18 12:43:37;;;;;;;1.70;0.60;;;;;;;;;;6060006;23;20623;-62
2023/10/18 12:46:22;;;;;;;0.93;0.40;;;;;;;;;;6057574;23;20027;-62
2023/10/18 12:49:22;;;;;;;2.10;0.30;;;;;;;;;;6060262;23;20030;-62
2023/10/18 12:52:03;;;;;;;0.40;0.30;;;;;;;;;;6058923;23;20049;-62
2023/10/18 12:54:56;;;;;;;0.55;0.38;;;;;;;;;;6058809;23;20022;-52
2023/10/18 12:57:49;;;;;;;0.45;0.30;;;;;;;;;;6059667;23;20075;-50
2023/10/18 13:00:43;;;;;;;0.30;0.30;;;;;;;;;;6057431;23;20042;-60
2023/10/18 13:03:45;;;;;;;0.77;0.40;;;;;;;;;;6060220;23;20050;-60
2023/10/18 13:06:42;;;;;;;0.45;0.30;;;;;;;;;;6058033;23;20023;-60
2023/10/18 13:09:43;;;;;;;4.65;0.30;;;;;;;;;;6059142;23;20027;-59
2023/10/18 13:12:23;;;;;;;2.50;0.30;;;;;;;;;;6058977;23;20035;-59
2023/10/18 13:15:17;;;;;;;1.50;0.30;;;;;;;;;;6058236;23;20029;-60
2023/10/18 13:18:04;;;;;;;0.43;0.30;;;;;;;;;;6059731;23;20025;-53
2023/10/18 13:21:11;;;;;;;1.80;0.60;;;;;;;;;;6057786;23;20031;-51
2023/10/18 13:24:17;;;;;;;0.38;0.30;;;;;;;;;;6059326;23;20445;-48
2023/10/18 13:27:17;;;;;;;0.20;0.10;;;;;;;;;;6058225;23;20023;-51
2023/10/18 13:30:04;;;;;;;0.20;0.20;;;;;;;;;;6058756;23;20090;-47
2023/10/18 13:32:55;;;;;;;0.17;0.10;;;;;;;;;;6056796;23;20484;-58
2023/10/18 13:35:44;;;;;;;0.25;0.25;;;;;;;;;;6058476;23;20026;-60
2023/10/18 13:38:36;;;;;;;0.65;0.30;;;;;;;;;;6058766;23;20026;-59
2023/10/18 13:41:23;;;;;;;0.40;0.30;;;;;;;;;;6058433;23;20023;-60
2023/10/18 13:44:21;;;;;;;0.43;0.25;;;;;;;;;;6059002;23;20023;-59
2023/10/18 13:47:14;;;;;;;1.27;0.30;;;;;;;;;;6058030;23;20217;-60
2023/10/18 13:50:02;;;;;;;0.88;0.30;;;;;;;;;;6057071;23;20074;-65
2023/10/18 13:52:55;;;;;;;0.20;0.20;;;;;;;;;;6057047;23;20110;-47
2023/10/18 13:55:56;;;;;;;0.32;0.28;;;;;;;;;;6057428;23;20023;-47
2023/10/18 13:58:43;;;;;;;1.25;0.32;;;;;;;;;;6056870;23;20106;-51
2023/10/18 14:01:38;;;;;;;0.32;0.17;;;;;;;;;;6058306;23;20023;-50
2023/10/18 14:04:28;;;;;;;0.60;0.30;;;;;;;;;;6056985;23;20030;-48
2023/10/18 14:07:21;;;;;;;1.45;0.20;;;;;;;;;;6057318;23;20031;-52
2023/10/18 14:10:19;;;;;;;0.50;0.25;;;;;;;;;;6057466;23;20023;-51
2023/10/18 14:13:06;;;;;;;0.20;0.20;;;;;;;;;;6056982;23;20027;-60
2023/10/18 14:15:52;;;;;;;2.75;0.40;;;;;;;;;;6056523;23;20026;-59
2023/10/18 14:18:27;;;;;;;1.02;0.28;;;;;;;;;;6054860;23;20026;-60
2023/10/18 14:21:19;;;;;;;0.20;0.20;;;;;;;;;;6054724;23;20027;-60
2023/10/18 14:24:15;;;;;;;;;;;;;;;;;;6054563;23;20030;-59
2023/10/18 14:27:09;;;;;;;0.45;0.30;;;;;;;;;;6054606;23;19921;-61
2023/10/18 14:30:01;;;;;;;0.30;0.30;;;;;;;;;;6053662;23;20465;-51
2023/10/18 14:32:48;;;;;;;0.20;0.20;;;;;;;;;;6055864;23;20026;-49
2023/10/18 14:35:43;;;;;;;0.20;0.20;;;;;;;;;;6051055;23;20030;-50
2023/10/18 14:38:30;;;;;;;0.30;0.30;;;;;;;;;;6052188;23;20145;-49
2023/10/18 14:41:24;;;;;;;0.30;0.30;;;;;;;;;;6051527;23;20031;-52
2023/10/18 14:44:18;;;;;;;0.38;0.38;;;;;;;;;;6054178;23;20031;-53
2023/10/18 14:47:12;;;;;;;0.73;0.40;;;;;;;;;;6054037;23;20405;-59
2023/10/18 14:49:59;;;;;;;0.32;0.30;;;;;;;;;;6055045;23;20469;-63
2023/10/18 14:52:53;;;;;;;0.25;0.25;;;;;;;;;;6055138;23;20354;-64
2023/10/18 14:55:40;;;;;;;0.60;0.55;;;;;;;;;;6051384;23;20019;-64
2023/10/18 14:58:34;;;;;;;1.65;0.50;;;;;;;;;;6056199;23;20102;-63
2023/10/18 15:01:21;;;;;;;0.57;0.57;;;;;;;;;;6054379;23;20520;-64
2023/10/18 15:04:15;;;;;;;0.45;0.40;;;;;;;;;;6057059;23;20027;-49
2023/10/18 15:07:02;;;;;;;1.40;1.00;;;;;;;;;;6055882;23;20034;-49
2023/10/18 15:09:56;;;;;;;1.90;1.30;;;;;;;;;;6055815;23;20027;-47
2023/10/18 15:12:43;;;;;;;1.45;1.00;;;;;;;;;;6056064;23;20030;-47
2023/10/18 15:15:37;;;;;;;1.55;0.80;;;;;;;;;;6054475;23;20133;-48
2023/10/18 15:18:25;;;;;;;1.55;0.68;;;;;;;;;;6056394;23;20026;-51
2023/10/18 15:21:29;;;;;;;1.15;0.88;;;;;;;;;;6053162;23;20031;-49
2023/10/18 15:24:19;;;;;;;0.38;0.38;;;;;;;;;;6055553;23;20073;-58
2023/10/18 15:27:15;;;;;;;0.85;0.50;;;;;;;;;;6053871;23;20038;-57
2023/10/18 15:30:05;;;;;;;1.02;0.68;;;;;;;;;;6055209;23;20793;-58
2023/10/18 15:32:58;;;;;;;4.03;0.80;;;;;;;;;;6055598;23;20026;-57
2023/10/18 15:35:45;;;;;;;0.50;0.50;;;;;;;;;;6055313;23;20030;-58
2023/10/18 15:38:39;;;;;;;1.13;0.45;;;;;;;;;;6055352;23;20023;-58
2023/10/18 15:41:26;;;;;;;2.75;0.43;;;;;;;;;;6052279;23;20027;-59
2023/10/18 15:44:21;;;;;;;0.45;0.45;;;;;;;;;;6057235;23;20053;-58
2023/10/18 15:47:08;;;;;;;1.63;0.45;;;;;;;;;;6056620;23;20369;-58
2023/10/18 15:50:03;;;;;;;1.23;0.95;;;;;;;;;;6058939;23;20027;-57
2023/10/18 15:52:48;;;;;;;1.42;0.93;;;;;;;;;;6057858;23;20033;-58
2023/10/18 15:55:42;;;;;;;2.60;0.75;;;;;;;;;;6058876;23;20114;-57
2023/10/18 15:58:29;;;;;;;2.88;1.45;;;;;;;;;;6056873;23;20023;-59
2023/10/18 16:01:23;;;;;;;2.30;1.65;;;;;;;;;;6059156;23;20023;-62
2023/10/18 16:04:26;;;;;;;6.13;3.17;;;;;;;;;;6053226;23;20019;-54
2023/10/18 16:07:19;;;;;;;2.22;1.50;;;;;;;;;;6058394;23;20050;-48
2023/10/18 16:10:11;;;;;;;3.33;1.95;;;;;;;;;;6056632;23;20416;-50
2023/10/18 16:13:04;;;;;;;1.95;1.20;;;;;;;;;;6056436;23;20079;-52
2023/10/18 16:15:51;;;;;;;0.88;0.70;;;;;;;;;;6057185;23;20064;-49
2023/10/18 16:18:25;;;;;;;0.77;0.60;;;;;;;;;;6055346;23;20022;-48
2023/10/18 16:21:23;;;;;;;0.70;0.50;;;;;;;;;;6056843;23;20746;-61
2023/10/18 16:24:14;;;;;;;0.30;0.30;;;;;;;;;;6057165;23;20026;-61
2023/10/18 16:27:01;;;;;;;0.82;0.50;;;;;;;;;;6056730;23;20027;-61
2023/10/18 16:29:55;;;;;;;1.77;0.70;;;;;;;;;;6057011;23;20086;-61
2023/10/18 16:32:42;;;;;;;2.28;0.60;;;;;;;;;;6056656;23;20469;-61
2023/10/18 16:35:36;;;;;;;0.40;0.40;;;;;;;;;;6055373;23;20027;-61
2023/10/18 16:38:26;;;;;;;0.40;0.40;;;;;;;;;;6057801;23;20025;-58
2023/10/18 16:41:07;;;;;;;1.02;0.60;;;;;;;;;;6056655;23;20556;-57
2023/10/18 16:43:35;;;;;;;0.80;0.40;;;;;;;;;;6057079;23;20033;-58
2023/10/18 16:46:11;;;;;;;0.75;0.55;;;;;;;;;;6056484;23;20023;-57
2023/10/18 16:48:59;;;;;;;0.60;0.57;;;;;;;;;;6057696;23;20019;-58
2023/10/18 16:51:53;;;;;;;1.00;0.70;;;;;;;;;;6056568;23;20035;-57
2023/10/18 16:54:39;;;;;;;0.52;0.52;;;;;;;;;;6054659;23;20086;-60
2023/10/18 16:57:36;;;;;;;0.93;0.80;;;;;;;;;;6053412;23;20031;-62
2023/10/18 17:00:20;;;;;;;2.80;0.60;;;;;;;;;;6054086;23;20031;-61
2023/10/18 17:03:14;;;;;;;3.17;0.90;;;;;;;;;;6054784;23;20037;-61
2023/10/18 17:06:04;;;;;;;2.28;0.93;;;;;;;;;;6052633;23;20023;-62
2023/10/18 17:08:59;;;;;;;1.30;1.02;;;;;;;;;;6052833;23;20272;-62
2023/10/18 17:11:46;;;;;;;1.27;1.00;;;;;;;;;;6053858;23;20023;-62
2023/10/18 17:14:40;;;;;;;1.92;1.02;;;;;;;;;;6055462;23;20027;-46
2023/10/18 17:17:27;;;;;;;1.38;0.93;;;;;;;;;;6053948;23;20023;-58
2023/10/18 17:20:21;;;;;;;1.08;0.95;;;;;;;;;;6054566;23;20023;-56
2023/10/18 17:23:14;;;;;;;1.92;1.02;;;;;;;;;;6051872;23;20085;-56
2023/10/18 17:26:09;;;;;;;2.47;1.10;;;;;;;;;;6053397;23;20042;-58
2023/10/18 17:28:56;;;;;;;1.38;0.73;;;;;;;;;;6050508;23;20111;-58
2023/10/18 17:31:50;;;;;;;4.03;1.02;;;;;;;;;;6050969;23;20515;-61
2023/10/18 17:34:40;;;;;;;0.90;0.88;;;;;;;;;;6052043;23;20062;-60
2023/10/18 17:37:32;;;;;;;1.65;0.90;;;;;;;;;;6051838;23;20029;-59
2023/10/18 17:40:20;;;;;;;1.35;0.70;;;;;;;;;;6053251;23;20893;-60
2023/10/18 17:43:19;;;;;;;2.30;0.90;;;;;;;;;;6050494;23;20102;-60